createdAt,value
2022-11-08T00:00:00.786Z,15.54
2022-11-08T00:01:00.996Z,15.52
2022-11-08T00:02:01.278Z,15.54
2022-11-08T00:03:01.402Z,15.51
2022-11-08T00:04:01.516Z,15.51
2022-11-08T00:05:01.677Z,15.44
2022-11-08T00:06:01.836Z,15.46
2022-11-08T00:07:02.011Z,15.43
2022-11-08T00:08:02.168Z,15.42
2022-11-08T00:09:02.345Z,15.37
2022-11-08T00:10:02.517Z,15.36
2022-11-08T00:11:02.676Z,15.33
2022-11-08T00:12:02.859Z,15.28
2022-11-08T00:13:03.015Z,15.28
2022-11-08T00:14:03.182Z,15.24
2022-11-08T00:15:03.339Z,15.21
2022-11-08T00:16:03.495Z,15.19
2022-11-08T00:17:03.676Z,15.17
2022-11-08T00:18:03.838Z,15.14
2022-11-08T00:19:03.997Z,15.11
2022-11-08T00:20:04.155Z,15.10
2022-11-08T00:21:04.327Z,15.06
2022-11-08T00:22:04.505Z,15.07
2022-11-08T00:23:04.666Z,15.04
2022-11-08T00:24:04.826Z,15.03
2022-11-08T00:25:04.987Z,15.00
2022-11-08T00:26:05.150Z,14.99
2022-11-08T00:27:05.327Z,14.96
2022-11-08T00:28:05.477Z,14.96
2022-11-08T00:29:05.676Z,14.96
2022-11-08T00:30:05.884Z,14.92
2022-11-08T00:31:06.005Z,14.91
2022-11-08T00:32:06.175Z,14.88
2022-11-08T00:33:06.344Z,14.88
2022-11-08T00:34:06.498Z,14.85
2022-11-08T00:35:06.706Z,14.84
2022-11-08T00:36:06.859Z,14.79
2022-11-08T00:37:07.035Z,14.81
2022-11-08T00:38:07.199Z,14.81
2022-11-08T00:39:07.388Z,14.79
2022-11-08T00:40:07.558Z,14.79
2022-11-08T00:41:07.722Z,14.78
2022-11-08T00:42:07.893Z,14.78
2022-11-08T00:43:08.061Z,14.78
2022-11-08T00:44:08.215Z,14.78
2022-11-08T00:45:08.365Z,14.79
2022-11-08T00:46:08.526Z,14.78
2022-11-08T00:47:08.706Z,14.81
2022-11-08T00:48:08.877Z,14.79
2022-11-08T00:49:09.037Z,14.77
2022-11-08T00:50:09.196Z,14.73
2022-11-08T00:51:09.360Z,14.72
2022-11-08T00:52:09.533Z,14.70
2022-11-08T00:53:09.696Z,14.69
2022-11-08T00:54:09.856Z,14.70
2022-11-08T00:55:10.029Z,14.69
2022-11-08T00:56:10.186Z,14.68
2022-11-08T00:57:10.366Z,14.69
2022-11-08T00:58:10.524Z,14.66
2022-11-08T00:59:10.716Z,14.65
2022-11-08T01:00:10.876Z,14.65
2022-11-08T01:01:11.179Z,14.65
2022-11-08T01:02:11.314Z,14.65
2022-11-08T01:03:11.426Z,14.65
2022-11-08T01:04:11.586Z,14.60
2022-11-08T01:05:11.747Z,14.62
2022-11-08T01:06:11.905Z,14.59
2022-11-08T01:07:12.088Z,14.58
2022-11-08T01:08:12.245Z,14.58
2022-11-08T01:09:12.405Z,14.59
2022-11-08T01:10:12.567Z,14.54
2022-11-08T01:11:12.726Z,14.58
2022-11-08T01:12:12.896Z,14.55
2022-11-08T01:13:13.063Z,14.55
2022-11-08T01:14:13.217Z,14.55
2022-11-08T01:15:13.422Z,14.54
2022-11-08T01:16:13.536Z,14.55
2022-11-08T01:17:13.716Z,14.59
2022-11-08T01:18:13.887Z,14.58
2022-11-08T01:19:14.039Z,14.55
2022-11-08T01:20:14.280Z,14.59
2022-11-08T01:21:14.383Z,14.58
2022-11-08T01:22:14.555Z,14.59
2022-11-08T01:23:14.719Z,14.59
2022-11-08T01:24:14.875Z,14.58
2022-11-08T01:25:15.035Z,14.59
2022-11-08T01:26:15.194Z,14.58
2022-11-08T01:27:15.407Z,14.58
2022-11-08T01:28:15.979Z,14.59
2022-11-08T01:29:15.734Z,14.53
2022-11-08T01:30:15.886Z,14.53
2022-11-08T01:31:16.083Z,14.53
2022-11-08T01:32:16.246Z,14.53
2022-11-08T01:33:16.429Z,14.53
2022-11-08T01:34:16.576Z,14.51
2022-11-08T01:35:16.784Z,14.50
2022-11-08T01:36:16.935Z,14.50
2022-11-08T01:37:17.143Z,14.51
2022-11-08T01:38:17.556Z,14.50
2022-11-08T01:39:17.475Z,14.48
2022-11-08T01:40:17.625Z,14.50
2022-11-08T01:41:17.826Z,14.50
2022-11-08T01:42:17.985Z,14.48
2022-11-08T01:43:18.155Z,14.50
2022-11-08T01:44:18.315Z,14.50
2022-11-08T01:45:18.485Z,14.51
2022-11-08T01:46:18.645Z,14.50
2022-11-08T01:47:18.822Z,14.51
2022-11-08T01:48:19.445Z,14.51
2022-11-08T01:49:19.195Z,14.53
2022-11-08T01:50:19.357Z,14.53
2022-11-08T01:51:19.528Z,14.53
2022-11-08T01:52:19.698Z,14.55
2022-11-08T01:53:19.854Z,14.58
2022-11-08T01:54:20.019Z,14.58
2022-11-08T01:55:20.194Z,14.55
2022-11-08T01:56:20.338Z,14.58
2022-11-08T01:57:20.504Z,14.55
2022-11-08T01:58:20.814Z,14.54
2022-11-08T01:59:20.866Z,14.54
2022-11-08T02:00:21.026Z,14.55
2022-11-08T02:01:21.271Z,14.54
2022-11-08T02:02:21.478Z,14.55
2022-11-08T02:03:21.533Z,14.55
2022-11-08T02:04:21.697Z,14.53
2022-11-08T02:05:21.845Z,14.54
2022-11-08T02:06:22.011Z,14.54
2022-11-08T02:07:22.185Z,14.55
2022-11-08T02:08:22.335Z,14.53
2022-11-08T02:09:22.535Z,14.54
2022-11-08T02:10:22.694Z,14.54
2022-11-08T02:11:22.856Z,14.53
2022-11-08T02:12:23.037Z,14.51
2022-11-08T02:13:23.192Z,14.51
2022-11-08T02:14:23.344Z,14.51
2022-11-08T02:15:23.543Z,14.50
2022-11-08T02:16:23.695Z,14.50
2022-11-08T02:17:23.865Z,14.51
2022-11-08T02:18:24.024Z,14.50
2022-11-08T02:19:24.215Z,14.47
2022-11-08T02:20:24.397Z,14.45
2022-11-08T02:21:24.565Z,14.45
2022-11-08T02:22:24.739Z,14.45
2022-11-08T02:23:24.902Z,14.44
2022-11-08T02:24:25.055Z,14.44
2022-11-08T02:25:25.224Z,14.43
2022-11-08T02:26:25.375Z,14.43
2022-11-08T02:27:25.555Z,14.43
2022-11-08T02:28:25.705Z,14.44
2022-11-08T02:29:25.906Z,14.44
2022-11-08T02:30:26.065Z,14.41
2022-11-08T02:31:26.225Z,14.41
2022-11-08T02:32:26.404Z,14.37
2022-11-08T02:33:26.564Z,14.41
2022-11-08T02:34:26.725Z,14.40
2022-11-08T02:35:26.887Z,14.41
2022-11-08T02:36:27.044Z,14.43
2022-11-08T02:37:27.224Z,14.44
2022-11-08T02:38:27.428Z,14.44
2022-11-08T02:39:27.600Z,14.43
2022-11-08T02:40:27.761Z,14.43
2022-11-08T02:41:27.913Z,14.43
2022-11-08T02:42:28.084Z,14.41
2022-11-08T02:43:28.244Z,14.40
2022-11-08T02:44:28.403Z,14.37
2022-11-08T02:45:28.576Z,14.37
2022-11-08T02:46:28.727Z,14.40
2022-11-08T02:47:28.934Z,14.43
2022-11-08T02:48:29.095Z,14.43
2022-11-08T02:49:29.273Z,14.43
2022-11-08T02:50:29.428Z,14.43
2022-11-08T02:51:29.586Z,14.45
2022-11-08T02:52:29.764Z,14.47
2022-11-08T02:53:29.927Z,14.44
2022-11-08T02:54:30.084Z,14.45
2022-11-08T02:55:30.245Z,14.45
2022-11-08T02:56:30.404Z,14.45
2022-11-08T02:57:30.584Z,14.45
2022-11-08T02:58:30.736Z,14.48
2022-11-08T02:59:30.937Z,14.51
2022-11-08T03:00:31.095Z,14.53
2022-11-08T03:01:31.410Z,14.58
2022-11-08T03:02:31.527Z,14.60
2022-11-08T03:03:31.616Z,14.63
2022-11-08T03:04:31.805Z,14.68
2022-11-08T03:05:31.967Z,14.70
2022-11-08T03:06:32.163Z,14.72
2022-11-08T03:07:32.345Z,14.78
2022-11-08T03:08:32.521Z,14.79
2022-11-08T03:09:32.673Z,14.81
2022-11-08T03:10:32.872Z,14.85
2022-11-08T03:11:33.023Z,14.89
2022-11-08T03:12:33.319Z,14.92
2022-11-08T03:13:33.376Z,14.92
2022-11-08T03:14:33.572Z,14.96
2022-11-08T03:15:33.758Z,14.96
2022-11-08T03:16:33.913Z,14.96
2022-11-08T03:17:34.096Z,14.94
2022-11-08T03:18:34.243Z,14.92
2022-11-08T03:19:34.403Z,14.89
2022-11-08T03:20:34.583Z,14.84
2022-11-08T03:21:34.732Z,14.82
2022-11-08T03:22:34.934Z,14.81
2022-11-08T03:23:35.043Z,14.79
2022-11-08T03:24:35.303Z,14.78
2022-11-08T03:25:35.416Z,14.73
2022-11-08T03:26:35.615Z,14.72
2022-11-08T03:27:35.783Z,14.72
2022-11-08T03:28:35.956Z,14.68
2022-11-08T03:29:36.103Z,14.66
2022-11-08T03:30:36.277Z,14.62
2022-11-08T03:31:36.423Z,14.60
2022-11-08T03:32:36.694Z,14.59
2022-11-08T03:33:36.794Z,14.58
2022-11-08T03:34:36.952Z,14.53
2022-11-08T03:35:37.113Z,14.50
2022-11-08T03:36:37.299Z,14.47
2022-11-08T03:37:37.463Z,14.44
2022-11-08T03:38:37.603Z,14.40
2022-11-08T03:39:37.773Z,14.37
2022-11-08T03:40:37.939Z,14.35
2022-11-08T03:41:38.094Z,14.30
2022-11-08T03:42:38.263Z,14.32
2022-11-08T03:43:38.412Z,14.28
2022-11-08T03:44:38.584Z,14.28
2022-11-08T03:45:38.733Z,14.25
2022-11-08T03:46:38.917Z,14.23
2022-11-08T03:47:39.081Z,14.20
2022-11-08T03:48:39.241Z,14.22
2022-11-08T03:49:39.393Z,14.22
2022-11-08T03:50:39.625Z,14.20
2022-11-08T03:51:39.762Z,14.20
2022-11-08T03:52:39.924Z,14.15
2022-11-08T03:53:40.083Z,14.17
2022-11-08T03:54:40.243Z,14.14
2022-11-08T03:55:40.403Z,14.12
2022-11-08T03:56:40.582Z,14.12
2022-11-08T03:57:40.768Z,14.10
2022-11-08T03:58:40.944Z,14.10
2022-11-08T03:59:41.101Z,14.10
2022-11-08T04:00:41.262Z,14.08
2022-11-08T04:01:41.531Z,14.07
2022-11-08T04:02:41.654Z,14.04
2022-11-08T04:03:41.783Z,14.04
2022-11-08T04:04:41.954Z,14.03
2022-11-08T04:05:42.108Z,14.00
2022-11-08T04:06:42.332Z,13.96
2022-11-08T04:07:42.462Z,13.96
2022-11-08T04:08:42.655Z,13.95
2022-11-08T04:09:42.803Z,13.95
2022-11-08T04:10:42.973Z,13.93
2022-11-08T04:11:43.135Z,13.90
2022-11-08T04:12:43.322Z,13.87
2022-11-08T04:13:43.465Z,13.87
2022-11-08T04:14:43.662Z,13.86
2022-11-08T04:15:43.845Z,13.83
2022-11-08T04:16:44.122Z,13.86
2022-11-08T04:17:44.182Z,13.83
2022-11-08T04:18:44.383Z,13.83
2022-11-08T04:19:44.571Z,13.81
2022-11-08T04:20:44.715Z,13.79
2022-11-08T04:21:44.885Z,13.78
2022-11-08T04:22:45.060Z,13.78
2022-11-08T04:23:45.214Z,13.77
2022-11-08T04:24:45.411Z,13.75
2022-11-08T04:25:45.581Z,13.74
2022-11-08T04:26:45.790Z,13.72
2022-11-08T04:27:45.912Z,13.72
2022-11-08T04:28:46.109Z,13.71
2022-11-08T04:29:46.261Z,13.70
2022-11-08T04:30:46.421Z,13.70
2022-11-08T04:31:46.593Z,13.68
2022-11-08T04:32:46.752Z,13.68
2022-11-08T04:33:46.935Z,13.68
2022-11-08T04:34:47.081Z,13.68
2022-11-08T04:35:47.231Z,13.68
2022-11-08T04:36:47.443Z,13.63
2022-11-08T04:37:47.608Z,13.65
2022-11-08T04:38:47.798Z,13.62
2022-11-08T04:39:47.983Z,13.60
2022-11-08T04:40:48.144Z,13.57
2022-11-08T04:41:48.315Z,13.56
2022-11-08T04:42:48.472Z,13.54
2022-11-08T04:43:48.632Z,13.56
2022-11-08T04:44:48.791Z,13.54
2022-11-08T04:45:48.953Z,13.56
2022-11-08T04:46:49.123Z,13.54
2022-11-08T04:47:49.281Z,13.54
2022-11-08T04:48:49.451Z,13.53
2022-11-08T04:49:49.611Z,13.53
2022-11-08T04:50:49.774Z,13.52
2022-11-08T04:51:49.941Z,13.54
2022-11-08T04:52:50.101Z,13.52
2022-11-08T04:53:50.266Z,13.50
2022-11-08T04:54:50.421Z,13.50
2022-11-08T04:55:50.581Z,13.49
2022-11-08T04:56:50.758Z,13.50
2022-11-08T04:57:50.939Z,13.52
2022-11-08T04:58:51.111Z,13.52
2022-11-08T04:59:51.295Z,13.50
2022-11-08T05:00:51.452Z,13.52
2022-11-08T05:01:51.740Z,13.50
2022-11-08T05:02:51.822Z,13.50
2022-11-08T05:03:51.963Z,13.49
2022-11-08T05:04:52.161Z,13.50
2022-11-08T05:05:52.355Z,13.50
2022-11-08T05:06:52.520Z,13.49
2022-11-08T05:07:52.670Z,13.47
2022-11-08T05:08:52.839Z,13.47
2022-11-08T05:09:53.001Z,13.47
2022-11-08T05:10:53.223Z,13.46
2022-11-08T05:11:53.341Z,13.47
2022-11-08T05:12:53.539Z,13.46
2022-11-08T05:13:53.691Z,13.46
2022-11-08T05:14:53.866Z,13.46
2022-11-08T05:15:54.031Z,13.41
2022-11-08T05:16:54.200Z,13.42
2022-11-08T05:17:54.351Z,13.41
2022-11-08T05:18:54.511Z,13.41
2022-11-08T05:19:54.671Z,13.41
2022-11-08T05:20:54.858Z,13.41
2022-11-08T05:21:55.011Z,13.41
2022-11-08T05:22:55.171Z,13.38
2022-11-08T05:23:55.331Z,13.38
2022-11-08T05:24:55.502Z,13.38
2022-11-08T05:25:55.660Z,13.39
2022-11-08T05:26:55.834Z,13.37
2022-11-08T05:27:55.991Z,13.37
2022-11-08T05:28:56.181Z,13.38
2022-11-08T05:29:56.340Z,13.35
2022-11-08T05:30:56.553Z,13.33
2022-11-08T05:31:56.675Z,13.31
2022-11-08T05:32:56.861Z,13.27
2022-11-08T05:33:57.020Z,13.27
2022-11-08T05:34:57.221Z,13.25
2022-11-08T05:36:00.010Z,13.27
2022-11-08T05:36:57.560Z,13.27
2022-11-08T05:37:57.720Z,13.25
2022-11-08T05:38:57.891Z,13.23
2022-11-08T05:39:58.050Z,13.23
2022-11-08T05:40:58.241Z,13.27
2022-11-08T05:41:58.371Z,13.23
2022-11-08T05:42:58.530Z,13.23
2022-11-08T05:43:58.689Z,13.25
2022-11-08T05:44:58.863Z,13.27
2022-11-08T05:45:59.028Z,13.25
2022-11-08T05:46:59.191Z,13.22
2022-11-08T05:47:59.352Z,13.23
2022-11-08T05:48:59.535Z,13.23
2022-11-08T05:49:59.691Z,13.22
2022-11-08T05:50:59.862Z,13.23
2022-11-08T05:52:00.023Z,13.22
2022-11-08T05:53:00.203Z,13.22
2022-11-08T05:54:00.379Z,13.20
2022-11-08T05:55:00.553Z,13.19
2022-11-08T05:56:00.753Z,13.19
2022-11-08T05:57:00.903Z,13.18
2022-11-08T05:58:01.080Z,13.20
2022-11-08T05:59:01.265Z,13.18
2022-11-08T06:00:01.441Z,13.18
2022-11-08T06:01:01.640Z,13.18
2022-11-08T06:02:01.836Z,13.18
2022-11-08T06:03:02.030Z,13.19
2022-11-08T06:04:02.109Z,13.19
2022-11-08T06:05:02.292Z,13.18
2022-11-08T06:06:02.512Z,13.16
2022-11-08T06:07:02.723Z,13.11
2022-11-08T06:08:02.842Z,13.09
2022-11-08T06:09:03.012Z,13.05
2022-11-08T06:10:03.180Z,13.05
2022-11-08T06:11:03.369Z,13.04
2022-11-08T06:12:03.562Z,13.04
2022-11-08T06:13:03.732Z,13.04
2022-11-08T06:14:03.877Z,13.03
2022-11-08T06:15:04.030Z,13.04
2022-11-08T06:16:04.189Z,13.04
2022-11-08T06:17:04.412Z,13.01
2022-11-08T06:18:04.529Z,13.01
2022-11-08T06:19:04.781Z,13.00
2022-11-08T06:20:04.870Z,13.00
2022-11-08T06:21:05.108Z,12.98
2022-11-08T06:22:05.240Z,13.00
2022-11-08T06:23:05.422Z,12.95
2022-11-08T06:24:05.610Z,12.97
2022-11-08T06:25:05.804Z,12.95
2022-11-08T06:26:05.961Z,12.97
2022-11-08T06:27:06.132Z,12.98
2022-11-08T06:28:06.271Z,13.00
2022-11-08T06:29:07.447Z,13.00
2022-11-08T06:30:06.620Z,13.03
2022-11-08T06:31:06.799Z,13.01
2022-11-08T06:32:06.939Z,13.01
2022-11-08T06:33:08.078Z,13.01
2022-11-08T06:34:07.342Z,13.03
2022-11-08T06:35:07.478Z,13.04
2022-11-08T06:36:07.679Z,13.03
2022-11-08T06:37:08.827Z,13.04
2022-11-08T06:38:09.533Z,13.03
2022-11-08T06:39:08.198Z,13.00
2022-11-08T06:40:08.389Z,13.00
2022-11-08T06:41:08.538Z,13.01
2022-11-08T06:42:08.678Z,13.03
2022-11-08T06:43:08.877Z,13.01
2022-11-08T06:44:09.054Z,13.03
2022-11-08T06:45:09.237Z,13.03
2022-11-08T06:46:09.471Z,13.03
2022-11-08T06:47:09.617Z,12.98
2022-11-08T06:48:09.769Z,12.98
2022-11-08T06:49:10.003Z,12.95
2022-11-08T06:50:10.165Z,12.94
2022-11-08T06:51:10.333Z,12.91
2022-11-08T06:52:10.481Z,12.90
2022-11-08T06:53:10.659Z,12.90
2022-11-08T06:54:14.236Z,12.93
2022-11-08T06:55:12.027Z,12.91
2022-11-08T06:56:11.227Z,12.93
2022-11-08T06:57:11.348Z,12.95
2022-11-08T06:58:11.533Z,12.97
2022-11-08T06:59:11.697Z,12.98
2022-11-08T07:00:11.876Z,13.01
2022-11-08T07:01:12.149Z,13.01
2022-11-08T07:02:12.288Z,13.03
2022-11-08T07:03:12.484Z,13.05
2022-11-08T07:04:12.635Z,13.09
2022-11-08T07:05:12.800Z,13.09
2022-11-08T07:06:12.968Z,13.11
2022-11-08T07:07:13.110Z,13.09
2022-11-08T07:08:13.309Z,13.13
2022-11-08T07:09:13.479Z,13.15
2022-11-08T07:10:13.644Z,13.13
2022-11-08T07:11:13.800Z,13.13
2022-11-08T07:12:13.939Z,13.13
2022-11-08T07:13:14.119Z,13.18
2022-11-08T07:14:14.287Z,13.16
2022-11-08T07:15:14.488Z,13.16
2022-11-08T07:16:14.709Z,13.19
2022-11-08T07:17:14.819Z,13.19
2022-11-08T07:18:15.080Z,13.20
2022-11-08T07:19:15.186Z,13.22
2022-11-08T07:20:15.388Z,13.28
2022-11-08T07:21:15.530Z,13.28
2022-11-08T07:22:15.750Z,13.31
2022-11-08T07:23:15.886Z,13.35
2022-11-08T07:24:16.068Z,13.37
2022-11-08T07:25:16.238Z,13.35
2022-11-08T07:26:16.399Z,13.39
2022-11-08T07:27:16.563Z,13.41
2022-11-08T07:28:16.752Z,13.42
2022-11-08T07:29:16.898Z,13.47
2022-11-08T07:30:17.107Z,13.50
2022-11-08T07:31:17.250Z,13.56
2022-11-08T07:32:17.397Z,13.59
2022-11-08T07:33:18.175Z,13.65
2022-11-08T07:34:17.776Z,13.70
2022-11-08T07:35:17.968Z,13.71
2022-11-08T07:36:18.162Z,13.74
2022-11-08T07:37:18.297Z,13.78
2022-11-08T07:38:18.490Z,13.83
2022-11-08T07:39:18.652Z,13.86
2022-11-08T07:40:18.883Z,13.92
2022-11-08T07:41:18.979Z,13.96
2022-11-08T07:42:19.167Z,14.04
2022-11-08T07:43:19.348Z,14.11
2022-11-08T07:44:19.540Z,14.14
2022-11-08T07:45:19.776Z,14.18
2022-11-08T07:46:19.885Z,14.25
2022-11-08T07:47:20.067Z,14.29
2022-11-08T07:48:20.256Z,14.36
2022-11-08T07:49:20.408Z,14.43
2022-11-08T07:50:20.628Z,14.51
2022-11-08T07:51:20.750Z,14.58
2022-11-08T07:52:20.937Z,14.66
2022-11-08T07:53:21.295Z,14.77
2022-11-08T07:54:21.316Z,14.86
2022-11-08T07:55:21.545Z,14.96
2022-11-08T07:56:21.646Z,15.04
2022-11-08T07:57:21.818Z,15.18
2022-11-08T07:58:22.035Z,15.29
2022-11-08T07:59:22.184Z,15.49
2022-11-08T08:00:22.329Z,15.68
2022-11-08T08:01:22.518Z,15.84
2022-11-08T08:02:22.744Z,16.02
2022-11-08T08:03:23.404Z,16.47
2022-11-08T08:04:23.052Z,16.97
2022-11-08T08:05:23.217Z,17.46
2022-11-08T08:06:23.401Z,17.74
2022-11-08T08:07:23.558Z,17.86
2022-11-08T08:08:23.745Z,17.94
2022-11-08T08:09:23.927Z,18.10
2022-11-08T08:10:24.117Z,18.29
2022-11-08T08:11:27.127Z,18.56
2022-11-08T08:12:25.459Z,18.90
2022-11-08T08:13:24.615Z,19.30
2022-11-08T08:14:24.797Z,19.63
2022-11-08T08:15:24.967Z,19.91
2022-11-08T08:16:25.128Z,20.26
2022-11-08T08:17:25.287Z,20.59
2022-11-08T08:18:25.488Z,20.84
2022-11-08T08:19:25.667Z,21.29
2022-11-08T08:20:25.809Z,21.82
2022-11-08T08:21:25.958Z,22.15
2022-11-08T08:22:26.138Z,22.45
2022-11-08T08:23:26.326Z,22.84
2022-11-08T08:24:26.541Z,23.27
2022-11-08T08:25:26.669Z,23.76
2022-11-08T08:26:26.862Z,24.17
2022-11-08T08:27:27.009Z,24.57
2022-11-08T08:28:27.189Z,25.01
2022-11-08T08:29:27.355Z,25.46
2022-11-08T08:30:27.531Z,25.84
2022-11-08T08:31:27.689Z,26.05
2022-11-08T08:32:31.429Z,26.28
2022-11-08T08:33:34.209Z,26.55
2022-11-08T08:34:29.239Z,26.78
2022-11-08T08:35:28.370Z,27.00
2022-11-08T08:36:28.541Z,27.14
2022-11-08T08:37:28.728Z,27.26
2022-11-08T08:38:28.890Z,27.40
2022-11-08T08:39:29.071Z,27.58
2022-11-08T08:40:29.242Z,27.71
2022-11-08T08:41:29.436Z,27.80
2022-11-08T08:42:29.726Z,28.01
2022-11-08T08:43:29.762Z,28.15
2022-11-08T08:44:29.943Z,28.22
2022-11-08T08:45:30.114Z,28.22
2022-11-08T08:46:30.282Z,28.11
2022-11-08T08:47:30.451Z,28.19
2022-11-08T08:48:30.632Z,28.30
2022-11-08T08:49:30.812Z,28.47
2022-11-08T08:50:31.012Z,28.75
2022-11-08T08:51:31.169Z,29.02
2022-11-08T08:52:31.354Z,29.26
2022-11-08T08:53:31.492Z,29.32
2022-11-08T08:54:31.702Z,29.29
2022-11-08T08:55:31.854Z,29.38
2022-11-08T08:56:32.043Z,29.57
2022-11-08T08:57:32.194Z,29.68
2022-11-08T08:58:32.531Z,29.86
2022-11-08T09:02:33.074Z,29.98
2022-11-08T09:03:33.234Z,29.65
2022-11-08T09:04:33.426Z,29.35
2022-11-08T09:05:33.572Z,29.24
2022-11-08T09:06:33.780Z,29.19
2022-11-08T09:07:33.924Z,29.17
2022-11-08T09:08:34.065Z,29.19
2022-11-08T09:09:34.277Z,29.20
2022-11-08T09:10:34.436Z,29.19
2022-11-08T09:11:34.637Z,29.23
2022-11-08T09:12:34.812Z,29.02
2022-11-08T09:13:34.944Z,28.66
2022-11-08T09:14:35.137Z,28.30
2022-11-08T09:15:35.326Z,28.12
2022-11-08T09:16:35.475Z,28.05
2022-11-08T09:17:35.647Z,27.98
2022-11-08T09:18:35.867Z,27.86
2022-11-08T09:19:36.035Z,27.55
2022-11-08T09:20:36.207Z,27.15
2022-11-08T09:21:36.445Z,26.81
2022-11-08T09:22:36.565Z,26.44
2022-11-08T09:23:36.756Z,25.98
2022-11-08T09:24:36.951Z,25.58
2022-11-08T09:25:37.087Z,25.10
2022-11-08T09:26:37.275Z,24.85
2022-11-08T09:27:37.448Z,24.63
2022-11-08T09:28:37.627Z,24.48
2022-11-08T09:29:37.824Z,24.32
2022-11-08T09:30:37.977Z,24.20
2022-11-08T09:31:38.179Z,23.96
2022-11-08T09:33:39.509Z,23.58
2022-11-08T09:34:38.697Z,23.40
2022-11-08T09:35:38.837Z,23.21
2022-11-08T09:36:39.019Z,23.00
2022-11-08T09:37:39.229Z,22.83
2022-11-08T09:38:39.351Z,22.69
2022-11-08T09:39:39.603Z,22.54
2022-11-08T09:40:39.729Z,22.41
2022-11-08T09:41:39.909Z,22.28
2022-11-08T09:42:40.091Z,22.18
2022-11-08T09:43:40.268Z,22.10
2022-11-08T09:44:40.469Z,21.99
2022-11-08T09:45:40.619Z,21.89
2022-11-08T09:46:40.810Z,21.75
2022-11-08T09:47:40.989Z,21.66
2022-11-08T09:48:41.195Z,21.58
2022-11-08T09:49:41.372Z,21.51
2022-11-08T09:50:41.553Z,21.45
2022-11-08T09:51:41.689Z,21.33
2022-11-08T09:52:41.887Z,21.27
2022-11-08T09:53:42.040Z,21.18
2022-11-08T09:54:42.240Z,21.14
2022-11-08T09:55:42.479Z,21.09
2022-11-08T09:56:42.580Z,21.03
2022-11-08T09:57:42.780Z,20.97
2022-11-08T09:58:42.929Z,20.93
2022-11-08T09:59:43.140Z,20.84
2022-11-08T10:00:43.291Z,20.77
2022-11-08T10:01:43.448Z,20.77
2022-11-08T10:02:43.608Z,20.80
2022-11-08T10:03:43.818Z,20.80
2022-11-08T10:04:43.979Z,20.78
2022-11-08T10:05:44.112Z,20.75
2022-11-08T10:06:44.362Z,20.78
2022-11-08T10:07:44.480Z,20.80
2022-11-08T10:08:44.682Z,20.78
2022-11-08T10:09:44.852Z,20.81
2022-11-08T10:10:45.033Z,20.80
2022-11-08T10:11:45.223Z,20.84
2022-11-08T10:12:45.401Z,20.80
2022-11-08T10:13:45.624Z,20.77
2022-11-08T10:14:53.390Z,20.80
2022-11-08T10:15:46.965Z,20.75
2022-11-08T10:16:46.114Z,20.72
2022-11-08T10:17:46.291Z,20.75
2022-11-08T10:18:46.492Z,20.75
2022-11-08T10:19:46.673Z,20.77
2022-11-08T10:20:46.822Z,20.80
2022-11-08T10:21:46.961Z,20.80
2022-11-08T10:22:47.145Z,20.82
2022-11-08T10:23:47.355Z,20.85
2022-11-08T10:24:47.504Z,20.87
2022-11-08T10:25:47.652Z,20.85
2022-11-08T10:26:47.839Z,20.85
2022-11-08T10:27:47.993Z,20.88
2022-11-08T10:28:48.143Z,20.84
2022-11-08T10:29:48.302Z,20.84
2022-11-08T10:30:48.510Z,20.81
2022-11-08T10:31:48.623Z,20.81
2022-11-08T10:32:48.843Z,20.82
2022-11-08T10:33:48.982Z,20.85
2022-11-08T10:34:49.172Z,20.87
2022-11-08T10:35:49.343Z,20.88
2022-11-08T10:36:49.532Z,20.93
2022-11-08T10:37:49.703Z,20.90
2022-11-08T10:38:49.902Z,20.87
2022-11-08T10:39:50.074Z,20.88
2022-11-08T10:40:50.297Z,20.85
2022-11-08T10:41:50.414Z,20.88
2022-11-08T10:42:50.593Z,20.88
2022-11-08T10:43:50.794Z,20.84
2022-11-08T10:44:50.977Z,20.85
2022-11-08T10:45:51.105Z,20.85
2022-11-08T10:46:51.282Z,20.84
2022-11-08T10:47:51.475Z,20.82
2022-11-08T10:48:51.663Z,20.81
2022-11-08T10:49:51.804Z,20.78
2022-11-08T10:50:52.004Z,20.75
2022-11-08T10:51:52.166Z,20.74
2022-11-08T10:52:52.360Z,20.70
2022-11-08T10:53:52.574Z,20.70
2022-11-08T10:54:52.727Z,20.67
2022-11-08T10:55:52.925Z,20.63
2022-11-08T10:56:53.094Z,20.63
2022-11-08T10:57:53.274Z,20.60
2022-11-08T10:58:53.485Z,20.60
2022-11-08T10:59:53.625Z,20.62
2022-11-08T11:00:53.806Z,20.58
2022-11-08T11:01:54.027Z,20.58
2022-11-08T11:02:54.155Z,20.56
2022-11-08T11:03:54.355Z,20.52
2022-11-08T11:04:54.525Z,20.52
2022-11-08T11:05:54.675Z,20.47
2022-11-08T11:06:54.903Z,20.47
2022-11-08T11:08:00.611Z,20.41
2022-11-08T11:08:56.247Z,20.34
2022-11-08T11:09:55.396Z,20.31
2022-11-08T11:10:55.587Z,20.28
2022-11-08T11:11:55.804Z,20.25
2022-11-08T11:12:55.946Z,20.18
2022-11-08T11:13:56.141Z,20.14
2022-11-08T11:14:56.289Z,20.10
2022-11-08T11:15:56.468Z,20.09
2022-11-08T11:16:56.683Z,20.07
2022-11-08T11:17:56.805Z,20.07
2022-11-08T11:18:56.997Z,20.03
2022-11-08T11:19:57.155Z,20.03
2022-11-08T11:20:57.342Z,20.00
2022-11-08T11:21:57.506Z,19.95
2022-11-08T11:22:57.696Z,19.95
2022-11-08T11:23:57.887Z,19.94
2022-11-08T11:24:58.086Z,19.99
2022-11-08T11:25:58.248Z,19.94
2022-11-08T11:26:58.417Z,19.96
2022-11-08T11:27:58.616Z,20.00
2022-11-08T11:28:58.807Z,19.99
2022-11-08T11:29:58.947Z,20.04
2022-11-08T11:30:59.146Z,20.07
2022-11-08T11:31:59.287Z,20.10
2022-11-08T11:32:59.479Z,20.11
2022-11-08T11:33:59.659Z,20.14
2022-11-08T11:34:59.808Z,20.14
2022-11-08T11:35:59.988Z,20.19
2022-11-08T11:37:00.167Z,20.19
2022-11-08T11:38:00.348Z,20.19
2022-11-08T11:39:00.561Z,20.21
2022-11-08T11:40:00.698Z,20.22
2022-11-08T11:41:00.963Z,20.21
2022-11-08T11:42:17.854Z,20.19
2022-11-08T11:43:02.237Z,20.19
2022-11-08T11:44:01.437Z,20.24
2022-11-08T11:45:01.580Z,20.28
2022-11-08T11:46:01.758Z,20.32
2022-11-08T11:47:01.967Z,20.37
2022-11-08T11:48:02.108Z,20.43
2022-11-08T11:49:02.320Z,20.48
2022-11-08T11:50:02.475Z,20.52
2022-11-08T11:51:02.732Z,20.59
2022-11-08T11:52:02.812Z,20.59
2022-11-08T11:53:02.969Z,20.59
2022-11-08T11:54:03.170Z,20.59
2022-11-08T11:55:03.338Z,20.56
2022-11-08T11:56:03.562Z,20.56
2022-11-08T11:57:03.719Z,20.58
2022-11-08T11:58:03.880Z,20.58
2022-11-08T11:59:04.104Z,20.60
2022-11-08T12:00:04.217Z,20.62
2022-11-08T12:01:04.368Z,20.62
2022-11-08T12:02:04.580Z,20.65
2022-11-08T12:03:04.729Z,20.67
2022-11-08T12:04:04.945Z,20.69
2022-11-08T12:05:05.082Z,20.65
2022-11-08T12:06:05.269Z,20.67
2022-11-08T12:07:05.925Z,20.66
2022-11-08T12:08:05.638Z,20.62
2022-11-08T12:09:05.839Z,20.62
2022-11-08T12:10:05.988Z,20.59
2022-11-08T12:11:06.172Z,20.58
2022-11-08T12:12:06.348Z,20.58
2022-11-08T12:13:06.541Z,20.55
2022-11-08T12:14:06.699Z,20.56
2022-11-08T12:15:06.840Z,20.55
2022-11-08T12:16:07.052Z,20.55
2022-11-08T12:17:07.183Z,20.52
2022-11-08T12:18:07.362Z,20.50
2022-11-08T12:19:07.510Z,20.52
2022-11-08T12:20:07.700Z,20.58
2022-11-08T12:21:07.901Z,20.62
2022-11-08T12:22:08.040Z,20.66
2022-11-08T12:23:08.251Z,20.69
2022-11-08T12:24:08.398Z,20.74
2022-11-08T12:25:08.570Z,20.75
2022-11-08T12:26:08.751Z,20.80
2022-11-08T12:27:08.931Z,20.80
2022-11-08T12:28:09.128Z,20.81
2022-11-08T12:29:09.280Z,20.84
2022-11-08T12:30:09.430Z,20.85
2022-11-08T12:31:09.632Z,20.85
2022-11-08T12:32:09.800Z,20.90
2022-11-08T12:33:10.013Z,20.93
2022-11-08T12:34:10.152Z,20.95
2022-11-08T12:35:10.332Z,20.93
2022-11-08T12:36:10.522Z,20.93
2022-11-08T12:37:10.691Z,20.92
2022-11-08T12:38:10.862Z,20.90
2022-11-08T12:39:11.001Z,20.90
2022-11-08T12:40:11.240Z,20.93
2022-11-08T12:41:11.352Z,20.90
2022-11-08T12:42:11.534Z,20.88
2022-11-08T12:43:11.724Z,20.92
2022-11-08T12:44:11.913Z,20.93
2022-11-08T12:45:12.096Z,20.93
2022-11-08T12:46:12.283Z,20.93
2022-11-08T12:47:12.462Z,20.95
2022-11-08T12:48:12.662Z,20.92
2022-11-08T12:49:12.843Z,20.87
2022-11-08T12:50:13.047Z,20.81
2022-11-08T12:51:13.184Z,20.78
2022-11-08T12:52:13.363Z,20.74
2022-11-08T12:53:13.552Z,20.67
2022-11-08T12:54:13.692Z,20.66
2022-11-08T12:55:13.873Z,20.60
2022-11-08T12:56:14.055Z,20.62
2022-11-08T12:57:14.212Z,20.58
2022-11-08T12:58:14.407Z,20.56